createdAt,value
2022-10-20T00:00:57.046Z,6.13
2022-10-20T00:03:42.395Z,6.87
2022-10-20T00:06:30.483Z,6.83
2022-10-20T00:09:15.985Z,7.03
2022-10-20T00:12:00.758Z,7.37
2022-10-20T00:14:45.542Z,7.60
2022-10-20T00:17:30.594Z,6.97
2022-10-20T00:23:00.561Z,7.17
2022-10-20T00:25:47.509Z,8.43
2022-10-20T00:28:33.060Z,8.40
2022-10-20T00:31:19.150Z,8.00
2022-10-20T00:34:04.358Z,8.57
2022-10-20T00:36:51.311Z,9.30
2022-10-20T00:39:37.199Z,9.47
2022-10-20T00:42:22.108Z,9.60
2022-10-20T00:45:15.190Z,9.90
2022-10-20T00:48:05.987Z,10.00
2022-10-20T00:50:53.726Z,10.23
2022-10-20T00:53:38.894Z,10.60
2022-10-20T00:56:23.905Z,10.60
2022-10-20T00:59:11.249Z,10.80
2022-10-20T01:01:57.569Z,10.60
2022-10-20T01:04:43.429Z,10.50
2022-10-20T01:07:28.508Z,11.60
2022-10-20T01:10:14.106Z,11.63
2022-10-20T01:13:08.513Z,11.50
2022-10-20T01:16:07.094Z,11.90
2022-10-20T01:18:58.227Z,12.10
2022-10-20T01:22:03.002Z,12.30
2022-10-20T01:24:54.190Z,12.07
2022-10-20T01:27:45.294Z,12.73
2022-10-20T01:30:32.026Z,12.50
2022-10-20T01:33:43.944Z,12.67
2022-10-20T01:36:36.879Z,12.47
2022-10-20T01:39:38.429Z,12.30
2022-10-20T01:42:26.006Z,12.97
2022-10-20T01:45:14.549Z,13.10
2022-10-20T01:48:03.158Z,13.53
2022-10-20T01:50:49.987Z,13.50
2022-10-20T01:53:35.418Z,13.30
2022-10-20T01:56:29.774Z,13.37
2022-10-20T01:59:17.901Z,13.13
2022-10-20T02:02:35.263Z,13.67
2022-10-20T02:05:45.301Z,13.07
2022-10-20T02:08:43.248Z,12.47
2022-10-20T02:11:54.968Z,12.47
2022-10-20T02:14:42.019Z,12.90
2022-10-20T02:17:29.035Z,13.40
2022-10-20T02:20:15.493Z,13.23
2022-10-20T02:23:04.782Z,13.43
2022-10-20T02:25:52.825Z,13.87
2022-10-20T02:28:40.890Z,14.10
2022-10-20T02:31:26.496Z,14.20
2022-10-20T02:34:12.468Z,13.90
2022-10-20T02:36:59.143Z,13.97
2022-10-20T02:39:44.177Z,13.87
2022-10-20T02:42:29.234Z,14.00
2022-10-20T02:45:14.384Z,13.23
2022-10-20T02:47:59.550Z,14.17
2022-10-20T02:50:44.640Z,13.40
2022-10-20T02:53:29.522Z,13.13
2022-10-20T02:56:14.356Z,13.33
2022-10-20T02:58:59.177Z,13.70
2022-10-20T03:01:44.559Z,13.50
2022-10-20T03:04:29.598Z,13.20
2022-10-20T03:07:15.073Z,12.50
2022-10-20T03:10:00.249Z,12.60
2022-10-20T03:12:45.324Z,12.37
2022-10-20T03:15:30.626Z,13.00
2022-10-20T03:18:15.544Z,13.27
2022-10-20T03:21:00.453Z,13.50
2022-10-20T03:23:45.194Z,12.83
2022-10-20T03:26:30.200Z,13.97
2022-10-20T03:29:15.239Z,13.33
2022-10-20T03:32:00.106Z,13.50
2022-10-20T03:34:45.544Z,14.10
2022-10-20T03:37:30.413Z,13.70
2022-10-20T03:40:15.518Z,13.87
2022-10-20T03:43:00.575Z,14.27
2022-10-20T03:45:45.726Z,13.33
2022-10-20T03:48:30.805Z,12.83
2022-10-20T03:51:15.966Z,13.30
2022-10-20T03:54:00.701Z,13.50
2022-10-20T03:56:45.497Z,13.60
2022-10-20T03:59:30.660Z,13.77
2022-10-20T04:02:40.898Z,13.30
2022-10-20T04:05:25.983Z,12.83
2022-10-20T04:08:11.329Z,13.17
2022-10-20T04:10:57.627Z,12.30
2022-10-20T04:13:42.538Z,12.77
2022-10-20T04:16:27.522Z,12.77
2022-10-20T04:19:12.343Z,12.40
2022-10-20T04:21:57.263Z,12.40
2022-10-20T04:24:42.388Z,12.00
2022-10-20T04:27:28.199Z,12.83
2022-10-20T04:30:13.291Z,12.53
2022-10-20T04:32:58.059Z,11.80
2022-10-20T04:35:43.386Z,12.67
2022-10-20T04:38:33.366Z,11.47
2022-10-20T04:41:18.436Z,11.67
2022-10-20T04:44:03.700Z,12.23
2022-10-20T04:46:48.802Z,12.20
2022-10-20T04:49:34.247Z,11.50
2022-10-20T04:52:19.061Z,11.53
2022-10-20T04:55:04.715Z,11.60
2022-10-20T04:57:49.646Z,11.77
2022-10-20T05:00:34.629Z,11.63
2022-10-20T05:03:20.232Z,11.93
2022-10-20T05:06:17.048Z,11.97
2022-10-20T05:09:06.900Z,12.23
2022-10-20T05:11:52.541Z,11.70
2022-10-20T05:14:37.450Z,11.43
2022-10-20T05:17:22.519Z,11.63
2022-10-20T05:20:07.732Z,12.00
2022-10-20T05:22:52.665Z,12.20
2022-10-20T05:25:38.554Z,11.93
2022-10-20T05:28:23.762Z,11.70
2022-10-20T05:31:08.819Z,11.97
2022-10-20T05:33:55.539Z,11.97
2022-10-20T05:36:40.692Z,11.93
2022-10-20T05:39:25.541Z,12.10
2022-10-20T05:42:10.903Z,11.83
2022-10-20T05:44:56.308Z,12.33
2022-10-20T05:47:41.209Z,12.20
2022-10-20T05:50:29.398Z,12.83
2022-10-20T05:53:16.588Z,12.00
2022-10-20T05:56:10.142Z,12.00
2022-10-20T05:58:56.010Z,11.17
2022-10-20T06:01:41.166Z,11.93
2022-10-20T06:04:26.109Z,11.77
2022-10-20T06:07:11.074Z,11.83
2022-10-20T06:09:57.675Z,88.17
2022-10-20T06:12:45.806Z,12.20
2022-10-20T06:15:32.482Z,11.30
2022-10-20T06:18:17.679Z,11.23
2022-10-20T06:21:07.531Z,11.67
2022-10-20T06:23:52.950Z,11.30
2022-10-20T06:26:39.118Z,11.20
2022-10-20T06:29:24.171Z,11.00
2022-10-20T06:32:09.067Z,11.93
2022-10-20T06:34:54.375Z,11.10
2022-10-20T06:37:39.333Z,11.20
2022-10-20T06:40:24.816Z,10.77
2022-10-20T06:43:09.735Z,11.03
2022-10-20T06:46:00.029Z,11.10
2022-10-20T06:48:45.928Z,11.13
2022-10-20T06:51:31.862Z,11.33
2022-10-20T06:54:17.740Z,11.13
2022-10-20T06:57:02.936Z,11.17
2022-10-20T06:59:47.910Z,11.23
2022-10-20T07:02:33.301Z,11.43
2022-10-20T07:05:18.344Z,11.27
2022-10-20T07:08:03.323Z,10.97
2022-10-20T07:10:56.939Z,11.23
2022-10-20T07:13:42.714Z,11.17
2022-10-20T07:16:30.928Z,10.80
2022-10-20T07:19:15.830Z,11.53
2022-10-20T07:22:00.735Z,10.60
2022-10-20T07:24:45.783Z,10.80
2022-10-20T07:27:31.097Z,11.17
2022-10-20T07:30:16.006Z,11.27
2022-10-20T07:33:00.968Z,10.93
2022-10-20T07:35:46.340Z,11.10
2022-10-20T07:38:31.291Z,10.70
2022-10-20T07:41:16.573Z,11.30
2022-10-20T07:44:01.911Z,11.27
2022-10-20T07:46:47.292Z,11.67
2022-10-20T07:49:44.327Z,13.13
2022-10-20T07:52:30.356Z,12.00
2022-10-20T07:55:36.595Z,12.47
2022-10-20T07:58:20.517Z,12.27
2022-10-20T08:01:06.051Z,12.17
2022-10-20T08:03:51.137Z,12.07
2022-10-20T08:06:36.275Z,12.20
2022-10-20T08:09:21.625Z,12.47
2022-10-20T08:12:06.618Z,12.50
2022-10-20T08:14:51.533Z,12.93
2022-10-20T08:17:36.957Z,12.90
2022-10-20T08:20:26.405Z,12.70
2022-10-20T08:23:13.666Z,12.43
2022-10-20T08:25:59.830Z,12.27
2022-10-20T08:28:46.665Z,12.73
2022-10-20T08:31:32.176Z,11.77
2022-10-20T08:34:17.465Z,14.10
2022-10-20T08:37:02.765Z,12.77
2022-10-20T08:39:48.142Z,11.23
2022-10-20T08:42:39.038Z,13.00
2022-10-20T08:45:26.428Z,12.63
2022-10-20T08:48:22.098Z,11.68
2022-10-20T08:51:17.932Z,11.30
2022-10-20T08:54:04.356Z,11.48
2022-10-20T08:56:49.995Z,10.98
2022-10-20T08:59:39.762Z,11.55
2022-10-20T09:02:26.267Z,11.48
2022-10-20T09:05:15.406Z,11.02
2022-10-20T09:08:03.816Z,10.55
2022-10-20T09:10:53.411Z,10.60
2022-10-20T09:13:38.854Z,10.55
2022-10-20T09:16:40.804Z,9.80
2022-10-20T09:19:33.954Z,10.55
2022-10-20T09:22:20.683Z,10.60
2022-10-20T09:25:06.936Z,9.98
2022-10-20T09:27:52.071Z,10.43
2022-10-20T09:30:37.137Z,10.25
2022-10-20T09:33:28.331Z,9.43
2022-10-20T09:36:17.511Z,9.70
2022-10-20T09:39:02.857Z,9.63
2022-10-20T09:41:49.210Z,9.55
2022-10-20T09:44:48.679Z,9.45
2022-10-20T09:47:34.893Z,9.60
2022-10-20T09:50:32.013Z,9.13
2022-10-20T09:53:23.961Z,8.57
2022-10-20T09:56:09.381Z,8.73
2022-10-20T09:58:56.770Z,9.27
2022-10-20T10:01:58.969Z,9.15
2022-10-20T10:04:46.432Z,8.63
2022-10-20T10:07:31.621Z,8.73
2022-10-20T10:10:19.722Z,8.80
2022-10-20T10:16:05.027Z,8.18
2022-10-20T10:19:01.774Z,9.05
2022-10-20T10:21:58.792Z,10.23
2022-10-20T10:24:46.111Z,8.32
2022-10-20T10:27:36.688Z,8.80
2022-10-20T10:30:31.950Z,8.65
2022-10-20T10:33:28.879Z,8.60
2022-10-20T10:36:33.800Z,9.07
2022-10-20T10:39:18.918Z,8.48
2022-10-20T10:42:12.118Z,8.40
2022-10-20T10:45:17.667Z,8.70
2022-10-20T10:48:05.591Z,8.80
2022-10-20T10:50:53.039Z,8.55
2022-10-20T10:54:00.022Z,8.75
2022-10-20T10:56:56.443Z,8.30
2022-10-20T10:59:44.126Z,8.05
2022-10-20T11:03:08.729Z,9.05
2022-10-20T11:06:05.970Z,9.05
2022-10-20T11:09:14.884Z,9.20
2022-10-20T11:12:28.677Z,9.55
2022-10-20T11:15:33.699Z,9.85
2022-10-20T11:18:44.695Z,9.07
2022-10-20T11:21:44.893Z,9.27
2022-10-20T11:24:38.986Z,9.80
2022-10-20T11:27:33.879Z,9.05
2022-10-20T11:30:20.727Z,8.50
2022-10-20T11:33:11.567Z,9.07
2022-10-20T11:36:24.409Z,8.60
2022-10-20T11:39:30.828Z,8.90
2022-10-20T11:42:30.041Z,8.52
2022-10-20T11:45:24.297Z,9.15
2022-10-20T11:48:30.444Z,8.48
2022-10-20T11:51:30.495Z,8.65
2022-10-20T11:54:44.505Z,8.82
2022-10-20T11:57:58.966Z,8.65
2022-10-20T12:00:54.119Z,8.88
2022-10-20T12:03:45.067Z,9.23
2022-10-20T12:06:48.660Z,9.05
2022-10-20T12:10:15.510Z,9.43
2022-10-20T12:13:15.400Z,9.13
2022-10-20T12:16:02.024Z,40.40
2022-10-20T12:19:06.364Z,10.68
2022-10-20T12:22:03.234Z,8.98
2022-10-20T12:25:26.828Z,9.43
2022-10-20T12:28:20.916Z,8.80
2022-10-20T12:31:06.955Z,9.52
2022-10-20T12:33:52.244Z,9.48
2022-10-20T12:36:40.295Z,9.35
2022-10-20T12:39:29.475Z,9.70
2022-10-20T12:42:29.836Z,9.52
2022-10-20T12:45:18.730Z,9.48
2022-10-20T12:48:05.800Z,10.48
2022-10-20T12:50:52.387Z,10.65
2022-10-20T12:53:38.297Z,9.75
2022-10-20T12:56:25.630Z,10.65
2022-10-20T12:59:31.211Z,10.95
2022-10-20T13:02:16.789Z,10.25
2022-10-20T13:05:15.436Z,11.25
2022-10-20T13:08:02.411Z,11.95
2022-10-20T13:10:49.226Z,12.10
2022-10-20T13:13:45.703Z,11.80
2022-10-20T13:16:31.376Z,11.40
2022-10-20T13:19:33.699Z,11.85
2022-10-20T13:22:44.522Z,13.00
2022-10-20T13:25:40.441Z,10.80
2022-10-20T13:28:31.757Z,10.43
2022-10-20T13:31:28.407Z,11.68
2022-10-20T13:34:28.443Z,11.63
2022-10-20T13:37:49.983Z,11.25
2022-10-20T13:43:57.913Z,12.20
2022-10-20T13:47:06.618Z,11.25
2022-10-20T13:49:54.594Z,11.57
2022-10-20T13:52:43.951Z,11.95
2022-10-20T13:55:51.470Z,11.85
2022-10-20T13:58:36.558Z,11.77
2022-10-20T14:01:26.776Z,12.30
2022-10-20T14:04:33.905Z,12.32
2022-10-20T14:07:19.063Z,13.02
2022-10-20T14:10:05.720Z,13.15
2022-10-20T14:12:52.572Z,13.63
2022-10-20T14:15:38.285Z,15.93
2022-10-20T14:18:27.470Z,14.80
2022-10-20T14:21:18.248Z,13.43
2022-10-20T14:24:04.322Z,14.32
2022-10-20T14:26:51.488Z,21.17
2022-10-20T14:29:40.131Z,25.52
2022-10-20T14:32:30.662Z,19.10
2022-10-20T14:35:19.217Z,17.77
2022-10-20T14:38:17.013Z,17.50
2022-10-20T14:41:02.402Z,18.85
2022-10-20T14:43:51.265Z,20.80
2022-10-20T14:46:39.468Z,18.48
2022-10-20T14:49:29.236Z,18.65
2022-10-20T14:52:21.280Z,19.15
2022-10-20T14:55:27.476Z,18.30
2022-10-20T14:58:33.372Z,18.40
2022-10-20T15:01:27.612Z,20.27
2022-10-20T15:04:26.565Z,20.42
2022-10-20T15:07:29.136Z,20.33
2022-10-20T15:10:16.539Z,39.58
2022-10-20T15:13:02.083Z,66.82
2022-10-20T15:15:48.355Z,20.23
2022-10-20T15:18:37.944Z,18.73
2022-10-20T15:21:25.110Z,20.67
2022-10-20T15:24:10.383Z,20.35
2022-10-20T15:26:56.342Z,21.05
2022-10-20T15:29:49.654Z,20.55
2022-10-20T15:32:35.436Z,21.02
2022-10-20T15:35:22.454Z,21.83
2022-10-20T15:38:08.954Z,21.30
2022-10-20T15:40:54.340Z,21.52
2022-10-20T15:43:39.795Z,21.05
2022-10-20T15:46:25.064Z,21.20
2022-10-20T15:49:11.060Z,22.73
2022-10-20T15:51:56.745Z,23.38
2022-10-20T15:54:41.949Z,23.45
2022-10-20T15:57:27.327Z,22.83
2022-10-20T16:00:13.215Z,24.40
2022-10-20T16:03:01.714Z,23.83
2022-10-20T16:05:47.268Z,24.55
2022-10-20T16:08:32.647Z,25.10
2022-10-20T16:11:20.264Z,28.30
2022-10-20T16:14:06.135Z,24.48
2022-10-20T16:16:52.054Z,25.63
2022-10-20T16:19:37.505Z,25.75
2022-10-20T16:22:22.673Z,26.05
2022-10-20T16:25:09.361Z,25.80
2022-10-20T16:27:54.678Z,26.48
2022-10-20T16:30:39.971Z,27.42
2022-10-20T16:33:25.020Z,33.03
2022-10-20T16:36:13.007Z,29.55
2022-10-20T16:38:58.505Z,27.50
2022-10-20T16:41:44.007Z,27.00
2022-10-20T16:44:29.592Z,26.55
2022-10-20T16:47:15.074Z,26.17
2022-10-20T16:50:00.571Z,26.52
2022-10-20T16:52:45.954Z,27.95
2022-10-20T16:55:31.390Z,26.92
2022-10-20T16:58:16.730Z,28.92
2022-10-20T17:01:08.633Z,28.10
2022-10-20T17:03:53.837Z,28.83
2022-10-20T17:06:39.377Z,27.67
2022-10-20T17:09:25.124Z,28.48
2022-10-20T17:12:10.205Z,49.03
2022-10-20T17:14:55.667Z,34.53
2022-10-20T17:17:40.750Z,30.17
2022-10-20T17:20:26.191Z,32.38
2022-10-20T17:23:12.323Z,31.58
2022-10-20T17:25:59.946Z,29.63
2022-10-20T17:28:45.334Z,28.83
2022-10-20T17:31:31.312Z,28.65
2022-10-20T17:34:16.782Z,27.45
2022-10-20T17:37:01.637Z,27.48
2022-10-20T17:39:47.418Z,26.80
2022-10-20T17:42:32.730Z,28.13
2022-10-20T17:45:17.637Z,28.10
2022-10-20T17:48:03.408Z,27.85
2022-10-20T17:50:48.252Z,27.40
2022-10-20T17:53:35.611Z,26.35
2022-10-20T17:56:29.192Z,26.98
2022-10-20T17:59:14.507Z,25.65
2022-10-20T18:01:59.733Z,25.88
2022-10-20T18:04:45.340Z,26.48
2022-10-20T18:07:30.775Z,28.70
2022-10-20T18:10:16.402Z,26.67
2022-10-20T18:13:01.858Z,27.80
2022-10-20T18:15:47.303Z,27.77
2022-10-20T18:18:32.270Z,25.75
2022-10-20T18:21:19.426Z,26.42
2022-10-20T18:24:06.586Z,27.58
2022-10-20T18:26:52.136Z,26.40
2022-10-20T18:29:37.518Z,26.40
2022-10-20T18:32:22.888Z,28.63
2022-10-20T18:35:08.628Z,27.05
2022-10-20T18:37:53.936Z,28.23
2022-10-20T18:40:38.956Z,27.30
2022-10-20T18:43:24.101Z,27.00
2022-10-20T18:46:09.502Z,27.75
2022-10-20T18:48:55.305Z,28.20
2022-10-20T18:51:41.406Z,27.30
2022-10-20T18:54:26.465Z,28.00
2022-10-20T18:57:11.401Z,23.73
2022-10-20T18:59:56.314Z,27.08
2022-10-20T19:02:41.393Z,26.23
2022-10-20T19:05:26.751Z,26.08
2022-10-20T19:08:12.145Z,25.48
2022-10-20T19:10:58.585Z,24.90
2022-10-20T19:13:43.555Z,25.35
2022-10-20T19:16:31.528Z,26.15
2022-10-20T19:19:16.677Z,26.60
2022-10-20T19:22:01.703Z,25.27
2022-10-20T19:24:47.276Z,25.08
2022-10-20T19:27:32.621Z,24.83
2022-10-20T19:30:17.891Z,24.90
2022-10-20T19:33:04.296Z,25.35
2022-10-20T19:35:50.444Z,25.50
2022-10-20T19:38:36.233Z,24.92
2022-10-20T19:41:22.565Z,28.10
2022-10-20T19:44:08.927Z,24.35
2022-10-20T19:46:54.526Z,24.20
2022-10-20T19:49:39.753Z,25.80
2022-10-20T19:52:25.004Z,24.60
2022-10-20T19:55:10.605Z,25.23
2022-10-20T19:57:56.036Z,23.50
2022-10-20T20:00:56.871Z,24.30
2022-10-20T20:03:42.045Z,24.45
2022-10-20T20:06:27.338Z,23.27
2022-10-20T20:09:12.701Z,24.48
2022-10-20T20:11:57.850Z,24.40
2022-10-20T20:14:43.187Z,25.23
2022-10-20T20:17:28.432Z,22.40
2022-10-20T20:20:13.953Z,24.35
2022-10-20T20:22:59.263Z,23.38
2022-10-20T20:25:45.949Z,24.20
2022-10-20T20:28:31.791Z,25.15
2022-10-20T20:31:17.198Z,23.13
2022-10-20T20:34:02.560Z,23.27
2022-10-20T20:36:47.750Z,23.52
2022-10-20T20:39:33.356Z,24.17
2022-10-20T20:42:18.441Z,25.40
2022-10-20T20:45:03.865Z,24.42
2022-10-20T20:47:49.186Z,23.15
2022-10-20T20:50:34.426Z,24.10
2022-10-20T20:53:19.690Z,24.30
2022-10-20T20:56:10.862Z,23.38
2022-10-20T20:58:56.068Z,24.05
2022-10-20T21:01:41.016Z,24.15
2022-10-20T21:04:28.391Z,23.25
2022-10-20T21:07:15.651Z,23.33
2022-10-20T21:10:00.696Z,22.90
2022-10-20T21:12:46.288Z,116.88
2022-10-20T21:15:31.609Z,45.35
2022-10-20T21:18:17.195Z,23.90
2022-10-20T21:21:17.094Z,22.83
2022-10-20T21:24:04.235Z,23.58
2022-10-20T21:26:49.265Z,24.65
2022-10-20T21:29:34.056Z,23.42
2022-10-20T21:32:19.042Z,23.70
2022-10-20T21:35:04.014Z,23.40
2022-10-20T21:37:49.496Z,22.90
2022-10-20T21:40:34.949Z,23.45
2022-10-20T21:43:20.300Z,23.90
2022-10-20T21:46:19.570Z,24.20
2022-10-20T21:49:07.406Z,23.25
2022-10-20T21:51:55.630Z,22.70
2022-10-20T21:54:40.968Z,23.55
2022-10-20T21:57:26.364Z,22.80
2022-10-20T22:00:12.305Z,22.88
2022-10-20T22:02:57.551Z,22.88
2022-10-20T22:05:42.797Z,22.63
2022-10-20T22:08:28.582Z,21.73
2022-10-20T22:11:19.139Z,21.60
2022-10-20T22:14:05.161Z,23.45
2022-10-20T22:16:50.747Z,21.98
2022-10-20T22:19:35.937Z,21.90
2022-10-20T22:22:21.154Z,21.92
2022-10-20T22:25:07.025Z,22.00
2022-10-20T22:27:51.972Z,22.67
2022-10-20T22:30:37.502Z,22.52
2022-10-20T22:33:22.750Z,20.45
2022-10-20T22:36:07.938Z,22.08
2022-10-20T22:38:53.470Z,22.95
2022-10-20T22:41:39.149Z,21.98
2022-10-20T22:44:24.167Z,22.42
2022-10-20T22:47:09.445Z,22.50
2022-10-20T22:49:57.720Z,22.33
2022-10-20T22:52:42.873Z,22.98
2022-10-20T22:55:27.759Z,22.38
2022-10-20T22:58:13.270Z,21.40
2022-10-20T23:00:58.361Z,20.75
2022-10-20T23:03:44.452Z,23.13
2022-10-20T23:06:29.334Z,22.23
2022-10-20T23:09:14.457Z,21.58
2022-10-20T23:11:59.492Z,22.35
2022-10-20T23:14:45.127Z,21.80
2022-10-20T23:17:30.303Z,22.65
2022-10-20T23:20:15.782Z,21.75
2022-10-20T23:23:00.920Z,21.45
2022-10-20T23:25:50.040Z,22.73
2022-10-20T23:28:36.139Z,21.70
2022-10-20T23:31:22.434Z,21.13
2022-10-20T23:34:09.240Z,21.95
2022-10-20T23:36:55.286Z,21.55
2022-10-20T23:39:40.201Z,21.33
2022-10-20T23:42:25.645Z,21.65
2022-10-20T23:45:11.009Z,21.33
2022-10-20T23:47:56.301Z,21.73
2022-10-20T23:50:44.301Z,21.30
2022-10-20T23:53:29.651Z,22.63
2022-10-20T23:56:14.536Z,21.83
2022-10-20T23:58:59.609Z,22.40
